createdAt,value
2023-01-19T00:00:59.456Z,97914.44
2023-01-19T00:03:28.123Z,97910.97
2023-01-19T00:05:56.575Z,97921.22
2023-01-19T00:08:24.933Z,97913.38
2023-01-19T00:10:53.363Z,97919.41
2023-01-19T00:13:21.767Z,97924.59
2023-01-19T00:15:51.510Z,97921.16
2023-01-19T00:18:20.018Z,97915.97
2023-01-19T00:20:49.313Z,97912.47
2023-01-19T00:23:17.784Z,97912.53
2023-01-19T00:25:47.833Z,97907.38
2023-01-19T00:28:17.807Z,97910.03
2023-01-19T00:30:46.818Z,97911.69
2023-01-19T00:33:16.523Z,97910.81
2023-01-19T00:35:45.399Z,97907.31
2023-01-19T00:38:13.779Z,97904.69
2023-01-19T00:40:42.106Z,97907.38
2023-01-19T00:43:10.480Z,97910.94
2023-01-19T00:45:38.888Z,97915.31
2023-01-19T00:48:07.602Z,97909.28
2023-01-19T00:50:37.331Z,97914.53
2023-01-19T00:53:05.703Z,97909.38
2023-01-19T00:55:34.280Z,97919.75
2023-01-19T00:58:03.534Z,97922.34
2023-01-19T01:00:36.851Z,97903.38
2023-01-19T01:03:05.618Z,97914.56
2023-01-19T01:05:33.975Z,97924.84
2023-01-19T01:08:03.695Z,97922.25
2023-01-19T01:10:32.081Z,97919.75
2023-01-19T01:13:19.893Z,97929.25
2023-01-19T01:15:51.064Z,97934.31
2023-01-19T01:18:19.582Z,97937.69
2023-01-19T01:20:48.085Z,97941.22
2023-01-19T01:23:23.200Z,97941.25
2023-01-19T01:25:51.706Z,97938.63
2023-01-19T01:28:20.145Z,97947.19
2023-01-19T01:30:48.638Z,97944.66
2023-01-19T01:33:39.780Z,97952.41
2023-01-19T01:36:06.095Z,97949.00
2023-01-19T01:38:35.804Z,97948.19
2023-01-19T01:41:04.407Z,97947.38
2023-01-19T01:43:45.324Z,97956.97
2023-01-19T01:46:16.116Z,97957.00
2023-01-19T01:48:50.760Z,97959.59
2023-01-19T01:51:25.432Z,97964.78
2023-01-19T01:54:06.943Z,97960.53
2023-01-19T01:56:38.568Z,97963.97
2023-01-19T01:59:10.376Z,97963.97
2023-01-19T02:01:56.449Z,97955.31
2023-01-19T02:04:25.350Z,97965.63
2023-01-19T02:07:11.540Z,97949.31
2023-01-19T02:09:58.685Z,97948.44
2023-01-19T02:12:45.348Z,97951.03
2023-01-19T02:15:22.408Z,97955.41
2023-01-19T02:17:51.028Z,97952.81
2023-01-19T02:20:21.679Z,97960.63
2023-01-19T02:22:52.194Z,97964.97
2023-01-19T02:25:22.060Z,97954.59
2023-01-19T02:27:51.514Z,97965.81
2023-01-19T02:30:20.301Z,97953.78
2023-01-19T02:32:48.646Z,97947.72
2023-01-19T02:35:18.704Z,97949.50
2023-01-19T02:37:47.924Z,97947.75
2023-01-19T02:40:20.713Z,97954.66
2023-01-19T02:42:53.034Z,97943.47
2023-01-19T02:45:23.576Z,97950.38
2023-01-19T02:47:53.314Z,97944.31
2023-01-19T02:50:38.123Z,97945.16
2023-01-19T02:53:26.096Z,97939.09
2023-01-19T02:55:59.495Z,97944.34
2023-01-19T02:58:35.746Z,97955.56
2023-01-19T03:01:14.043Z,97946.88
2023-01-19T03:03:55.621Z,97952.09
2023-01-19T03:06:38.851Z,97955.47
2023-01-19T03:09:15.403Z,97958.00
2023-01-19T03:11:51.168Z,97958.81
2023-01-19T03:14:24.200Z,97959.69
2023-01-19T03:16:56.951Z,97956.22
2023-01-19T03:19:29.313Z,97945.81
2023-01-19T03:22:00.096Z,97955.31
2023-01-19T03:24:32.261Z,97954.44
2023-01-19T03:27:04.713Z,97954.41
2023-01-19T03:29:36.105Z,97955.25
2023-01-19T03:32:10.421Z,97958.69
2023-01-19T03:34:41.056Z,97953.50
2023-01-19T03:37:12.300Z,97952.66
2023-01-19T03:39:41.160Z,97956.09
2023-01-19T03:42:13.513Z,97961.16
2023-01-19T03:44:45.158Z,97955.13
2023-01-19T03:47:15.660Z,97953.38
2023-01-19T03:49:46.763Z,97953.34
2023-01-19T03:52:15.165Z,97964.59
2023-01-19T03:54:43.910Z,97955.13
2023-01-19T03:57:12.811Z,97962.09
2023-01-19T03:59:42.737Z,97966.44
2023-01-19T04:02:11.225Z,97963.84
2023-01-19T04:04:40.061Z,97973.28
2023-01-19T04:07:10.703Z,97971.50
2023-01-19T04:09:39.058Z,97974.03
2023-01-19T04:12:07.772Z,97967.97
2023-01-19T04:14:36.114Z,97969.72
2023-01-19T04:17:05.839Z,97963.63
2023-01-19T04:19:34.146Z,97962.78
2023-01-19T04:22:02.626Z,97967.91
2023-01-19T04:24:31.027Z,97958.31
2023-01-19T04:26:59.444Z,97965.25
2023-01-19T04:29:27.774Z,97962.56
2023-01-19T04:31:56.085Z,97953.03
2023-01-19T04:34:25.905Z,97940.91
2023-01-19T04:36:55.884Z,97943.44
2023-01-19T04:39:24.239Z,97950.31
2023-01-19T04:41:52.809Z,97963.31
2023-01-19T04:44:21.182Z,97959.84
2023-01-19T04:46:49.657Z,97971.94
2023-01-19T04:49:18.284Z,97972.78
2023-01-19T04:51:48.470Z,97967.56
2023-01-19T04:54:16.983Z,97968.50
2023-01-19T04:56:45.325Z,97973.63
2023-01-19T04:59:14.335Z,97979.66
2023-01-19T05:01:42.786Z,97975.34
2023-01-19T05:04:11.127Z,97981.34
2023-01-19T05:06:39.589Z,97987.47
2023-01-19T05:09:11.643Z,97994.41
2023-01-19T05:11:40.191Z,97990.00
2023-01-19T05:14:08.530Z,97993.38
2023-01-19T05:16:36.873Z,97987.34
2023-01-19T05:19:05.246Z,97989.97
2023-01-19T05:21:33.600Z,97993.44
2023-01-19T05:24:01.916Z,97999.50
2023-01-19T05:26:31.592Z,97996.88
2023-01-19T05:28:59.962Z,98001.19
2023-01-19T05:31:28.512Z,98009.88
2023-01-19T05:33:56.919Z,98003.84
2023-01-19T05:36:25.234Z,98010.81
2023-01-19T05:38:53.786Z,98016.88
2023-01-19T05:41:22.166Z,98021.25
2023-01-19T05:43:51.889Z,98020.41
2023-01-19T05:46:20.335Z,98009.19
2023-01-19T05:48:48.798Z,98018.72
2023-01-19T05:51:18.164Z,98018.75
2023-01-19T05:53:46.821Z,98029.09
2023-01-19T05:56:15.146Z,98024.75
2023-01-19T05:58:43.503Z,98023.00
2023-01-19T06:01:13.664Z,98023.94
2023-01-19T06:03:42.420Z,98014.50
2023-01-19T06:06:11.519Z,98029.25
2023-01-19T06:08:40.411Z,98025.75
2023-01-19T06:11:09.052Z,98026.63
2023-01-19T06:13:41.269Z,98036.97
2023-01-19T06:16:11.570Z,98030.94
2023-01-19T06:18:41.940Z,98028.34
2023-01-19T06:21:13.552Z,98029.19
2023-01-19T06:23:42.258Z,98032.63
2023-01-19T06:26:10.783Z,98038.72
2023-01-19T06:28:39.168Z,98025.75
2023-01-19T06:31:07.542Z,98028.38
2023-01-19T06:33:35.941Z,98037.03
2023-01-19T06:36:06.526Z,98049.16
2023-01-19T06:38:35.119Z,98046.59
2023-01-19T06:41:03.555Z,98050.06
2023-01-19T06:43:32.459Z,98050.88
2023-01-19T06:46:01.687Z,98063.84
2023-01-19T06:48:30.214Z,98063.00
2023-01-19T06:50:59.797Z,98070.75
2023-01-19T06:53:30.145Z,98074.25
2023-01-19T06:56:03.388Z,98065.66
2023-01-19T06:58:34.739Z,98082.09
2023-01-19T07:01:03.718Z,98083.66
2023-01-19T07:03:32.834Z,98100.03
2023-01-19T07:06:02.688Z,98090.63
2023-01-19T07:08:32.576Z,98095.94
2023-01-19T07:11:24.755Z,98099.38
2023-01-19T07:13:51.563Z,98114.13
2023-01-19T07:16:20.007Z,98120.09
2023-01-19T07:18:49.210Z,98114.13
2023-01-19T07:21:17.779Z,98123.63
2023-01-19T07:23:49.243Z,98130.56
2023-01-19T07:26:19.777Z,98137.50
2023-01-19T07:28:48.807Z,98147.91
2023-01-19T07:31:18.223Z,98137.56
2023-01-19T07:33:46.993Z,98128.06
2023-01-19T07:36:16.027Z,98137.59
2023-01-19T07:38:44.581Z,98129.75
2023-01-19T07:41:14.367Z,98122.81
2023-01-19T07:43:42.816Z,98132.28
2023-01-19T07:46:11.168Z,98129.72
2023-01-19T07:48:39.552Z,98134.00
2023-01-19T07:51:13.077Z,98133.94
2023-01-19T07:53:42.207Z,98136.47
2023-01-19T07:56:11.578Z,98146.00
2023-01-19T07:58:41.304Z,98149.41
2023-01-19T08:01:11.374Z,98151.19
2023-01-19T08:03:40.369Z,98147.72
2023-01-19T08:06:08.829Z,98154.69
2023-01-19T08:08:37.666Z,98152.91
2023-01-19T08:11:06.340Z,98156.31
2023-01-19T08:13:34.660Z,98161.50
2023-01-19T08:16:04.855Z,98163.22
2023-01-19T08:18:33.257Z,98161.50
2023-01-19T08:21:01.595Z,98158.94
2023-01-19T08:23:30.081Z,98168.41
2023-01-19T08:25:58.404Z,98165.84
2023-01-19T08:28:26.874Z,98166.66
2023-01-19T08:30:55.419Z,98169.22
2023-01-19T08:33:25.648Z,98173.56
2023-01-19T08:35:54.937Z,98172.72
2023-01-19T08:38:24.833Z,98173.53
2023-01-19T08:40:53.242Z,98177.91
2023-01-19T08:43:21.560Z,98179.56
2023-01-19T08:45:52.622Z,98179.56
2023-01-19T08:48:25.324Z,98183.00
2023-01-19T08:50:53.938Z,98192.53
2023-01-19T08:53:24.060Z,98188.22
2023-01-19T08:55:57.306Z,98197.75
2023-01-19T08:58:25.645Z,98198.59
2023-01-19T09:00:54.235Z,98199.41
2023-01-19T09:03:23.562Z,98189.78
2023-01-19T09:05:53.304Z,98188.94
2023-01-19T09:08:21.636Z,98193.31
2023-01-19T09:10:52.288Z,98197.53
2023-01-19T09:13:21.081Z,98202.69
2023-01-19T09:15:49.707Z,98213.09
2023-01-19T09:18:20.581Z,98217.34
2023-01-19T09:20:50.603Z,98214.75
2023-01-19T09:23:22.566Z,98224.25
2023-01-19T09:25:57.612Z,98219.13
2023-01-19T09:28:26.793Z,98225.19
2023-01-19T09:30:55.339Z,98228.72
2023-01-19T09:33:24.513Z,98227.84
2023-01-19T09:35:53.075Z,98238.16
2023-01-19T09:38:23.865Z,98235.56
2023-01-19T09:40:54.963Z,98233.78
2023-01-19T09:43:34.922Z,98232.75
2023-01-19T09:46:06.633Z,98240.59
2023-01-19T09:48:45.631Z,98241.44
2023-01-19T09:51:17.885Z,98247.53
2023-01-19T09:53:55.385Z,98239.81
2023-01-19T09:56:25.062Z,98253.72
2023-01-19T09:58:53.960Z,98254.53
2023-01-19T10:01:36.093Z,98266.50
2023-01-19T10:04:27.690Z,98254.91
2023-01-19T10:07:06.411Z,98255.31
2023-01-19T10:09:43.603Z,98262.19
2023-01-19T10:12:19.908Z,98261.59
2023-01-19T10:14:55.059Z,98259.09
2023-01-19T10:17:38.099Z,98253.00
2023-01-19T10:20:17.849Z,98258.94
2023-01-19T10:22:49.795Z,98262.25
2023-01-19T10:25:23.648Z,98267.47
2023-01-19T10:27:52.510Z,98271.75
2023-01-19T10:30:24.349Z,98274.59
2023-01-19T10:32:53.492Z,98270.34
2023-01-19T10:35:25.002Z,98276.44
2023-01-19T10:37:57.116Z,98275.56
2023-01-19T10:40:34.603Z,98273.84
2023-01-19T10:43:03.761Z,98265.16
2023-01-19T10:45:32.684Z,98266.84
2023-01-19T10:48:07.160Z,98268.59
2023-01-19T10:50:39.916Z,98272.94
2023-01-19T10:53:21.723Z,98280.88
2023-01-19T10:56:18.693Z,98281.72
2023-01-19T10:58:47.389Z,98271.34
2023-01-19T11:01:18.574Z,98264.50
2023-01-19T11:03:47.201Z,98278.31
2023-01-19T11:06:27.973Z,98271.41
2023-01-19T11:09:12.592Z,98280.06
2023-01-19T11:11:55.587Z,98271.47
2023-01-19T11:14:30.673Z,98290.56
2023-01-19T11:16:59.883Z,98280.91
2023-01-19T11:19:31.061Z,98276.47
2023-01-19T11:22:21.541Z,98282.56
2023-01-19T11:24:50.683Z,98282.66
2023-01-19T11:27:21.768Z,98286.06
2023-01-19T11:29:59.014Z,98281.72
2023-01-19T11:32:29.016Z,98282.56
2023-01-19T11:34:57.823Z,98284.22
2023-01-19T11:37:34.346Z,98270.41
2023-01-19T11:40:16.032Z,98284.25
2023-01-19T11:42:46.545Z,98280.81
2023-01-19T11:45:18.669Z,98288.56
2023-01-19T11:47:49.576Z,98274.69
2023-01-19T11:50:27.655Z,98276.34
2023-01-19T11:53:00.695Z,98270.34
2023-01-19T11:55:37.743Z,98272.06
2023-01-19T11:58:18.330Z,98263.41
2023-01-19T12:00:51.282Z,98278.16
2023-01-19T12:03:25.491Z,98277.25
2023-01-19T12:06:08.452Z,98278.94
2023-01-19T12:08:41.175Z,98282.31
2023-01-19T12:11:15.803Z,98271.03
2023-01-19T12:13:48.511Z,98264.28
2023-01-19T12:16:22.821Z,98265.94
2023-01-19T12:18:55.721Z,98269.44
2023-01-19T12:21:24.089Z,98261.47
2023-01-19T12:24:13.048Z,98259.78
2023-01-19T12:26:49.477Z,98257.13
2023-01-19T12:29:22.632Z,98262.22
2023-01-19T12:32:18.709Z,98264.84
2023-01-19T12:34:48.209Z,98256.94
2023-01-19T12:37:45.325Z,98254.47
2023-01-19T12:40:30.151Z,98266.56
2023-01-19T12:43:01.850Z,98264.94
2023-01-19T12:45:35.689Z,98269.28
2023-01-19T12:48:05.286Z,98255.44
2023-01-19T12:50:38.290Z,98252.59
2023-01-19T12:53:20.663Z,98266.97
2023-01-19T12:56:00.129Z,98263.56
2023-01-19T12:58:28.797Z,98270.34
2023-01-19T13:01:15.323Z,98261.25
2023-01-19T13:04:03.725Z,98259.66
2023-01-19T13:07:10.404Z,98251.19
2023-01-19T13:09:39.963Z,98257.19
2023-01-19T13:12:20.126Z,98248.53
2023-01-19T13:14:52.589Z,98258.72
2023-01-19T13:17:33.471Z,98249.13
2023-01-19T13:20:35.711Z,98253.41
2023-01-19T13:23:19.018Z,98258.66
2023-01-19T13:25:58.598Z,98251.75
2023-01-19T13:28:33.617Z,98268.22
2023-01-19T13:31:03.797Z,98263.22
2023-01-19T13:33:41.307Z,98269.50
2023-01-19T13:36:21.397Z,98263.56
2023-01-19T13:38:52.134Z,98276.59
2023-01-19T13:41:25.151Z,98270.34
2023-01-19T13:44:02.707Z,98272.94
2023-01-19T13:46:38.466Z,98271.03
2023-01-19T13:49:19.110Z,98275.34
2023-01-19T13:51:53.121Z,98272.88
2023-01-19T13:54:25.922Z,98272.09
2023-01-19T13:56:55.031Z,98278.28
2023-01-19T13:59:23.548Z,98285.19
2023-01-19T14:01:54.143Z,98291.22
2023-01-19T14:04:29.601Z,98285.19
2023-01-19T14:07:01.830Z,98281.78
2023-01-19T14:09:30.317Z,98287.84
2023-01-19T14:12:25.687Z,98287.13
2023-01-19T14:14:54.183Z,98283.72
2023-01-19T14:17:27.846Z,98302.03
2023-01-19T14:20:05.622Z,98284.69
2023-01-19T14:22:39.869Z,98294.28
2023-01-19T14:25:31.148Z,98301.25
2023-01-19T14:28:28.385Z,98293.50
2023-01-19T14:31:00.812Z,98290.72
2023-01-19T14:33:46.969Z,98297.69
2023-01-19T14:36:41.930Z,98296.94
2023-01-19T14:39:24.436Z,98300.44
2023-01-19T14:41:54.414Z,98289.25
2023-01-19T14:44:29.733Z,98290.22
2023-01-19T14:47:03.093Z,98295.41
2023-01-19T14:49:36.804Z,98301.41
2023-01-19T14:52:17.891Z,98308.31
2023-01-19T14:54:47.499Z,98312.59
2023-01-19T14:57:16.361Z,98308.25
2023-01-19T14:59:49.504Z,98306.56
2023-01-19T15:02:19.415Z,98304.81
2023-01-19T15:04:48.816Z,98303.09
2023-01-19T15:07:26.366Z,98302.13
2023-01-19T15:10:00.192Z,98291.91
2023-01-19T15:12:29.908Z,98305.66
2023-01-19T15:14:58.329Z,98304.88
2023-01-19T15:17:30.429Z,98308.34
2023-01-19T15:19:58.781Z,98306.75
2023-01-19T15:22:29.870Z,98302.53
2023-01-19T15:24:59.952Z,98306.06
2023-01-19T15:27:28.596Z,98307.06
2023-01-19T15:30:01.987Z,98305.41
2023-01-19T15:32:30.626Z,98310.63
2023-01-19T15:34:59.079Z,98306.38
2023-01-19T15:37:28.748Z,98307.22
2023-01-19T15:40:01.372Z,98302.03
2023-01-19T15:42:29.838Z,98307.22
2023-01-19T15:44:58.205Z,98305.56
2023-01-19T15:47:26.601Z,98303.81
2023-01-19T15:49:55.015Z,98307.31
2023-01-19T15:52:26.207Z,98311.69
2023-01-19T15:54:55.899Z,98315.16
2023-01-19T15:57:24.355Z,98315.22
2023-01-19T15:59:53.278Z,98321.31
2023-01-19T16:02:21.905Z,98323.06
2023-01-19T16:04:50.591Z,98324.81
2023-01-19T16:07:19.363Z,98323.91
2023-01-19T16:09:48.081Z,98337.78
2023-01-19T16:12:17.820Z,98336.06
2023-01-19T16:14:46.259Z,98336.03
2023-01-19T16:17:14.644Z,98335.06
2023-01-19T16:19:43.172Z,98336.78
2023-01-19T16:22:12.148Z,98332.44
2023-01-19T16:24:40.699Z,98335.03
2023-01-19T16:27:09.345Z,98335.84
2023-01-19T16:29:39.060Z,98340.16
2023-01-19T16:32:07.730Z,98334.03
2023-01-19T16:34:36.889Z,98337.47
2023-01-19T16:37:06.252Z,98341.00
2023-01-19T16:39:34.976Z,98347.94
2023-01-19T16:42:06.077Z,98351.41
2023-01-19T16:44:36.083Z,98353.97
2023-01-19T16:47:05.891Z,98358.31
2023-01-19T16:49:34.293Z,98354.00
2023-01-19T16:52:03.790Z,98354.81
2023-01-19T16:54:32.823Z,98360.06
2023-01-19T16:57:01.773Z,98363.50
2023-01-19T16:59:30.177Z,98367.00
2023-01-19T17:01:58.746Z,98375.69
2023-01-19T17:04:29.435Z,98374.78
2023-01-19T17:06:57.991Z,98377.44
2023-01-19T17:09:26.380Z,98377.34
2023-01-19T17:11:54.711Z,98382.53
2023-01-19T17:14:23.171Z,98377.50
2023-01-19T17:16:51.581Z,98363.03
2023-01-19T17:19:22.075Z,98378.84
2023-01-19T17:21:54.937Z,98379.81
2023-01-19T17:24:23.688Z,98381.63
2023-01-19T17:26:52.137Z,98390.31
2023-01-19T17:29:20.455Z,98393.00
2023-01-19T17:31:51.195Z,98386.81
2023-01-19T17:34:19.592Z,98398.16
2023-01-19T17:36:47.996Z,98388.56
2023-01-19T17:39:18.421Z,98395.56
2023-01-19T17:41:48.303Z,98401.56
2023-01-19T17:44:18.533Z,98399.81
2023-01-19T17:46:50.987Z,98397.22
2023-01-19T17:49:19.621Z,98392.03
2023-01-19T17:51:51.744Z,98386.00
2023-01-19T17:54:21.557Z,98407.69
2023-01-19T17:56:50.867Z,98408.53
2023-01-19T17:59:19.272Z,98409.44
2023-01-19T18:01:47.744Z,98408.53
2023-01-19T18:04:16.164Z,98410.25
2023-01-19T18:06:46.995Z,98412.00
2023-01-19T18:09:15.343Z,98413.75
2023-01-19T18:11:45.255Z,98409.50
2023-01-19T18:14:13.601Z,98411.25
2023-01-19T18:16:42.096Z,98402.66
2023-01-19T18:19:10.655Z,98405.25
2023-01-19T18:21:39.101Z,98408.66
2023-01-19T18:24:07.996Z,98414.78
2023-01-19T18:26:37.529Z,98406.22
2023-01-19T18:29:07.340Z,98403.56
2023-01-19T18:31:35.863Z,98415.72
2023-01-19T18:34:04.572Z,98411.41
2023-01-19T18:36:34.121Z,98413.13
2023-01-19T18:39:02.578Z,98414.84
2023-01-19T18:41:31.519Z,98415.72
2023-01-19T18:44:00.317Z,98417.44
2023-01-19T18:46:30.120Z,98414.84
2023-01-19T18:48:58.623Z,98419.16
2023-01-19T18:51:27.053Z,98424.38
2023-01-19T18:53:55.687Z,98426.97
2023-01-19T18:56:24.403Z,98429.59
2023-01-19T18:58:53.208Z,98436.50
2023-01-19T19:01:24.648Z,98434.78
2023-01-19T19:03:55.690Z,98442.53
2023-01-19T19:06:26.920Z,98429.59
2023-01-19T19:08:56.887Z,98437.31
2023-01-19T19:11:26.370Z,98442.47
2023-01-19T19:13:55.425Z,98446.81
2023-01-19T19:16:23.970Z,98439.91
2023-01-19T19:18:53.879Z,98441.59
2023-01-19T19:21:25.083Z,98445.94
2023-01-19T19:23:54.445Z,98439.00
2023-01-19T19:26:23.709Z,98441.56
2023-01-19T19:28:52.177Z,98444.19
2023-01-19T19:31:22.768Z,98451.09
2023-01-19T19:33:51.819Z,98446.72
2023-01-19T19:36:22.134Z,98449.34
2023-01-19T19:38:51.340Z,98456.19
2023-01-19T19:41:21.847Z,98457.09
2023-01-19T19:43:50.714Z,98463.16
2023-01-19T19:46:20.828Z,98462.28
2023-01-19T19:48:52.228Z,98462.28
2023-01-19T19:51:25.263Z,98469.22
2023-01-19T19:53:54.564Z,98471.84
2023-01-19T19:56:24.627Z,98463.19
2023-01-19T19:58:55.858Z,98466.63
2023-01-19T20:01:28.559Z,98469.31
2023-01-19T20:03:59.849Z,98471.06
2023-01-19T20:06:29.889Z,98465.00
2023-01-19T20:08:58.263Z,98466.78
2023-01-19T20:11:30.882Z,98470.28
2023-01-19T20:13:59.514Z,98468.56
2023-01-19T20:16:28.285Z,98472.94
2023-01-19T20:18:56.764Z,98480.72
2023-01-19T20:21:27.086Z,98479.91
2023-01-19T20:24:00.188Z,98485.97
2023-01-19T20:26:31.873Z,98486.84
2023-01-19T20:29:05.783Z,98492.91
2023-01-19T20:31:36.535Z,98496.34
2023-01-19T20:34:07.626Z,98502.41
2023-01-19T20:36:37.523Z,98504.16
2023-01-19T20:39:10.964Z,98501.53
2023-01-19T20:41:44.996Z,98500.66
2023-01-19T20:44:14.628Z,98513.66
2023-01-19T20:46:43.473Z,98517.97
2023-01-19T20:49:11.940Z,98521.44
2023-01-19T20:51:43.228Z,98525.75
2023-01-19T20:54:14.903Z,98530.09
2023-01-19T20:56:44.197Z,98530.94
2023-01-19T20:59:13.559Z,98525.75
2023-01-19T21:01:42.905Z,98541.34
2023-01-19T21:04:12.131Z,98541.34
2023-01-19T21:06:41.217Z,98551.69
2023-01-19T21:09:11.132Z,98557.78
2023-01-19T21:11:41.087Z,98562.09
2023-01-19T21:14:09.417Z,98557.78
2023-01-19T21:16:38.920Z,98569.00
2023-01-19T21:19:07.795Z,98567.25
2023-01-19T21:21:36.214Z,98569.00
2023-01-19T21:24:05.227Z,98575.03
2023-01-19T21:26:34.245Z,98575.03
2023-01-19T21:29:04.724Z,98579.34
2023-01-19T21:31:33.140Z,98580.19
2023-01-19T21:34:01.635Z,98569.00
2023-01-19T21:36:29.981Z,98584.53
2023-01-19T21:39:00.596Z,98590.53
2023-01-19T21:41:30.343Z,98603.53
2023-01-19T21:44:00.547Z,98595.75
2023-01-19T21:46:32.607Z,98600.00
2023-01-19T21:49:02.566Z,98611.25
2023-01-19T21:51:33.312Z,98612.13
2023-01-19T21:54:02.613Z,98604.44
2023-01-19T21:56:34.522Z,98609.59
2023-01-19T21:59:03.445Z,98605.28
2023-01-19T22:01:34.569Z,98600.97
2023-01-19T22:04:03.088Z,98613.09
2023-01-19T22:06:31.544Z,98614.81
2023-01-19T22:09:00.611Z,98617.41
2023-01-19T22:11:29.959Z,98624.28
2023-01-19T22:13:59.627Z,98624.25
2023-01-19T22:16:29.413Z,98618.16
2023-01-19T22:19:01.799Z,98625.88
2023-01-19T22:21:31.919Z,98630.19
2023-01-19T22:24:01.878Z,98633.63
2023-01-19T22:26:31.654Z,98630.09
2023-01-19T22:29:01.752Z,98630.03
2023-01-19T22:31:31.391Z,98642.06
2023-01-19T22:34:01.237Z,98638.59
2023-01-19T22:36:31.616Z,98641.13
2023-01-19T22:39:01.679Z,98657.53
2023-01-19T22:41:31.760Z,98645.56
2023-01-19T22:44:02.294Z,98644.75
2023-01-19T22:46:32.655Z,98643.97
2023-01-19T22:49:03.099Z,98638.03
2023-01-19T22:51:33.078Z,98647.53
2023-01-19T22:54:02.073Z,98645.00
2023-01-19T22:56:32.258Z,98651.06
2023-01-19T22:59:01.621Z,98651.97
2023-01-19T23:01:33.487Z,98652.84
2023-01-19T23:04:05.375Z,98669.31
2023-01-19T23:06:36.048Z,98659.78
2023-01-19T23:09:06.058Z,98666.75
2023-01-19T23:11:36.423Z,98660.69
2023-01-19T23:14:06.284Z,98649.44
2023-01-19T23:16:35.563Z,98652.91
2023-01-19T23:19:05.998Z,98658.91
2023-01-19T23:21:35.097Z,98652.81
2023-01-19T23:24:05.457Z,98653.63
2023-01-19T23:26:38.009Z,98663.13
2023-01-19T23:29:08.577Z,98651.75
2023-01-19T23:31:38.902Z,98675.13
2023-01-19T23:34:10.417Z,98673.31
2023-01-19T23:36:40.654Z,98681.09
2023-01-19T23:39:14.382Z,98683.69
2023-01-19T23:41:42.836Z,98686.25
2023-01-19T23:44:11.386Z,98678.59
2023-01-19T23:46:43.807Z,98688.13
2023-01-19T23:49:13.794Z,98689.06
2023-01-19T23:51:42.540Z,98681.31
2023-01-19T23:54:12.141Z,98692.59
2023-01-19T23:56:42.452Z,98685.72
2023-01-19T23:59:12.754Z,98687.44
